createdAt,value
2022-08-03T00:00:26.531Z,20.95
2022-08-03T00:02:57.008Z,20.87
2022-08-03T00:05:23.837Z,20.86
2022-08-03T00:07:50.661Z,20.80
2022-08-03T00:10:17.504Z,20.75
2022-08-03T00:12:44.412Z,20.75
2022-08-03T00:15:16.529Z,20.74
2022-08-03T00:17:52.274Z,20.74
2022-08-03T00:20:20.110Z,20.70
2022-08-03T00:22:47.041Z,20.64
2022-08-03T00:25:13.989Z,20.63
2022-08-03T00:27:40.828Z,20.69
2022-08-03T00:30:08.385Z,20.67
2022-08-03T00:32:35.245Z,20.70
2022-08-03T00:35:08.124Z,20.71
2022-08-03T00:37:40.970Z,20.73
2022-08-03T00:40:09.887Z,20.71
2022-08-03T00:42:46.109Z,20.73
2022-08-03T00:45:13.020Z,20.73
2022-08-03T00:47:39.789Z,20.70
2022-08-03T00:50:06.815Z,20.73
2022-08-03T00:52:34.601Z,20.66
2022-08-03T00:55:01.648Z,20.69
2022-08-03T00:57:30.286Z,20.60
2022-08-03T00:59:57.281Z,20.59
2022-08-03T01:02:24.081Z,20.61
2022-08-03T01:04:50.918Z,20.61
2022-08-03T01:07:29.061Z,20.61
2022-08-03T01:09:56.024Z,20.65
2022-08-03T01:12:29.871Z,20.68
2022-08-03T01:15:08.826Z,20.80
2022-08-03T01:17:40.469Z,20.81
2022-08-03T01:20:10.787Z,20.77
2022-08-03T01:22:37.773Z,20.78
2022-08-03T01:25:20.104Z,20.78
2022-08-03T01:28:05.727Z,20.75
2022-08-03T01:30:34.014Z,20.79
2022-08-03T01:33:03.646Z,20.72
2022-08-03T01:35:38.552Z,20.73
2022-08-03T01:38:09.592Z,20.69
2022-08-03T01:40:38.217Z,20.69
2022-08-03T01:43:06.582Z,20.76
2022-08-03T01:45:34.503Z,20.72
2022-08-03T01:48:02.031Z,20.75
2022-08-03T01:50:30.096Z,20.80
2022-08-03T01:52:57.922Z,20.78
2022-08-03T01:55:28.246Z,20.72
2022-08-03T01:58:04.872Z,20.66
2022-08-03T02:00:35.691Z,20.70
2022-08-03T02:03:04.531Z,20.70
2022-08-03T02:05:32.147Z,20.72
2022-08-03T02:07:59.751Z,20.68
2022-08-03T02:10:34.582Z,20.70
2022-08-03T02:13:04.594Z,20.65
2022-08-03T02:15:32.978Z,20.77
2022-08-03T02:18:00.444Z,20.67
2022-08-03T02:20:27.637Z,20.64
2022-08-03T02:22:54.631Z,20.74
2022-08-03T02:25:21.579Z,20.71
2022-08-03T02:27:56.758Z,20.64
2022-08-03T02:30:29.139Z,20.72
2022-08-03T02:32:58.079Z,20.65
2022-08-03T02:35:26.685Z,20.59
2022-08-03T02:37:56.898Z,20.54
2022-08-03T02:40:24.567Z,20.46
2022-08-03T02:42:53.493Z,20.47
2022-08-03T02:45:21.202Z,20.40
2022-08-03T02:47:54.403Z,20.38
2022-08-03T02:50:22.963Z,20.44
2022-08-03T02:52:50.191Z,20.36
2022-08-03T03:12:30.298Z,19.45
2022-08-03T03:14:57.371Z,19.71
2022-08-03T03:17:24.756Z,19.87
2022-08-03T03:19:52.780Z,19.99
2022-08-03T03:22:22.095Z,20.15
2022-08-03T03:24:51.838Z,20.15
2022-08-03T03:27:19.097Z,20.21
2022-08-03T03:29:48.994Z,20.18
2022-08-03T03:32:16.355Z,20.28
2022-08-03T03:34:44.303Z,20.39
2022-08-03T03:37:11.443Z,20.42
2022-08-03T03:39:38.521Z,20.48
2022-08-03T03:42:05.722Z,20.60
2022-08-03T03:44:32.727Z,20.53
2022-08-03T03:46:59.835Z,20.60
2022-08-03T03:49:27.165Z,20.74
2022-08-03T03:51:55.566Z,20.78
2022-08-03T03:54:25.434Z,20.90
2022-08-03T03:56:56.157Z,21.00
2022-08-03T03:59:23.154Z,21.03
2022-08-03T04:01:59.193Z,21.25
2022-08-03T04:04:44.918Z,21.56
2022-08-03T04:07:30.689Z,22.13
2022-08-03T04:10:16.363Z,22.76
2022-08-03T04:12:50.022Z,23.07
2022-08-03T04:15:21.633Z,23.68
2022-08-03T04:17:50.721Z,24.14
2022-08-03T04:20:20.851Z,24.25
2022-08-03T04:22:51.522Z,24.89
2022-08-03T04:25:20.482Z,25.05
2022-08-03T04:28:29.987Z,25.37
2022-08-03T04:30:47.635Z,25.36
2022-08-03T04:33:17.699Z,25.19
2022-08-03T04:36:01.033Z,25.64
2022-08-03T04:38:36.849Z,26.01
2022-08-03T04:41:05.028Z,26.57
2022-08-03T04:43:34.721Z,26.89
2022-08-03T04:46:03.061Z,26.47
2022-08-03T04:48:30.459Z,27.24
2022-08-03T04:50:57.977Z,27.58
2022-08-03T04:53:24.938Z,27.04
2022-08-03T04:55:51.961Z,26.38
2022-08-03T04:58:18.898Z,26.44
2022-08-03T05:00:45.947Z,26.75
2022-08-03T05:03:20.316Z,27.06
2022-08-03T05:06:01.997Z,27.21
2022-08-03T05:08:46.429Z,27.26
2022-08-03T05:11:16.372Z,27.25
2022-08-03T05:13:44.968Z,27.08
2022-08-03T05:16:14.058Z,27.48
2022-08-03T05:18:42.242Z,27.69
2022-08-03T05:21:10.520Z,27.40
2022-08-03T05:23:38.027Z,27.97
2022-08-03T05:26:05.128Z,28.13
2022-08-03T05:28:32.063Z,28.62
2022-08-03T05:30:59.021Z,29.77
2022-08-03T05:33:26.058Z,29.44
2022-08-03T05:35:57.751Z,29.83
2022-08-03T05:38:34.882Z,29.57
2022-08-03T05:41:21.459Z,29.16
2022-08-03T05:43:51.032Z,28.79
2022-08-03T05:46:18.310Z,28.61
2022-08-03T05:48:45.270Z,28.55
2022-08-03T05:51:12.505Z,28.30
2022-08-03T05:53:43.285Z,28.64
2022-08-03T05:56:15.015Z,29.09
2022-08-03T05:58:44.287Z,29.74
2022-08-03T06:01:11.471Z,30.32
2022-08-03T06:03:38.394Z,30.16
2022-08-03T06:06:05.391Z,30.51
2022-08-03T06:08:33.112Z,30.77
2022-08-03T06:11:00.205Z,31.47
2022-08-03T06:13:27.151Z,31.12
2022-08-03T06:15:54.065Z,32.15
2022-08-03T06:18:21.324Z,32.62
2022-08-03T06:20:49.423Z,32.81
2022-08-03T06:23:18.984Z,33.26
2022-08-03T06:25:47.949Z,32.28
2022-08-03T06:28:42.559Z,32.80
2022-08-03T06:31:03.746Z,33.09
2022-08-03T06:34:30.906Z,33.43
2022-08-03T06:36:20.919Z,34.05
2022-08-03T06:38:48.205Z,34.79
2022-08-03T06:41:15.235Z,34.22
2022-08-03T06:44:03.691Z,35.05
2022-08-03T06:46:30.286Z,35.17
2022-08-03T06:48:57.316Z,35.19
2022-08-03T06:52:04.085Z,34.92
2022-08-03T06:54:12.399Z,34.77
2022-08-03T06:56:39.434Z,35.40
2022-08-03T06:59:06.298Z,35.43
2022-08-03T07:01:33.327Z,35.59
2022-08-03T07:04:01.257Z,36.05
2022-08-03T07:06:28.241Z,35.68
2022-08-03T07:08:59.218Z,35.98
2022-08-03T07:11:28.772Z,35.50
2022-08-03T07:13:56.561Z,35.72
2022-08-03T07:16:23.508Z,35.23
2022-08-03T07:18:50.393Z,35.30
2022-08-03T07:21:17.373Z,35.22
2022-08-03T07:23:44.458Z,35.78
2022-08-03T07:26:11.883Z,36.60
2022-08-03T07:28:38.858Z,36.96
2022-08-03T07:31:05.783Z,36.92
2022-08-03T07:33:32.738Z,37.23
2022-08-03T07:35:59.630Z,38.07
2022-08-03T07:38:26.662Z,38.93
2022-08-03T07:40:54.294Z,38.16
2022-08-03T07:43:21.269Z,37.63
2022-08-03T07:45:48.258Z,37.61
2022-08-03T07:48:15.257Z,37.38
2022-08-03T07:50:42.234Z,36.90
2022-08-03T07:53:09.173Z,37.21
2022-08-03T07:55:36.130Z,37.03
2022-08-03T07:58:06.216Z,37.02
2022-08-03T08:00:34.065Z,37.93
2022-08-03T08:03:01.135Z,38.24
2022-08-03T08:05:28.307Z,37.58
2022-08-03T08:07:55.809Z,38.16
2022-08-03T08:10:22.994Z,38.63
2022-08-03T08:12:50.475Z,38.33
2022-08-03T08:15:17.485Z,38.47
2022-08-03T08:17:46.423Z,37.94
2022-08-03T08:20:27.744Z,37.48
2022-08-03T08:23:01.235Z,37.94
2022-08-03T08:25:31.142Z,37.81
2022-08-03T08:28:30.931Z,38.08
2022-08-03T08:30:50.226Z,37.51
2022-08-03T08:33:23.001Z,39.73
2022-08-03T08:35:54.321Z,41.61
2022-08-03T08:38:22.226Z,39.74
2022-08-03T08:40:50.644Z,41.15
2022-08-03T08:43:17.610Z,40.90
2022-08-03T08:45:45.285Z,41.35
2022-08-03T08:48:14.035Z,40.03
2022-08-03T08:50:41.725Z,40.82
2022-08-03T08:53:18.185Z,40.55
2022-08-03T08:55:59.116Z,38.75
2022-08-03T08:58:38.913Z,39.91
2022-08-03T09:01:06.301Z,39.43
2022-08-03T09:03:35.311Z,38.31
2022-08-03T09:06:03.355Z,38.81
2022-08-03T09:08:32.171Z,40.73
2022-08-03T09:10:59.745Z,42.23
2022-08-03T09:13:26.891Z,42.84
2022-08-03T09:16:29.295Z,43.20
2022-08-03T09:18:56.407Z,43.72
2022-08-03T09:21:32.223Z,43.99
2022-08-03T09:24:04.788Z,44.83
2022-08-03T09:26:35.515Z,46.69
2022-08-03T09:29:14.759Z,46.73
2022-08-03T09:31:45.447Z,47.62
2022-08-03T09:34:17.012Z,42.68
2022-08-03T09:36:46.817Z,41.02
2022-08-03T09:39:16.257Z,40.41
2022-08-03T09:42:03.976Z,38.89
2022-08-03T09:45:00.429Z,32.97
2022-08-03T09:47:36.783Z,36.83
2022-08-03T09:50:13.006Z,39.09
2022-08-03T09:52:51.905Z,37.79
2022-08-03T09:56:34.727Z,41.42
2022-08-03T09:58:12.857Z,35.00
2022-08-03T10:01:04.520Z,33.69
2022-08-03T10:04:03.288Z,34.11
2022-08-03T10:06:28.816Z,34.91
2022-08-03T10:09:07.312Z,34.77
2022-08-03T10:11:41.614Z,34.36
2022-08-03T10:14:11.797Z,34.69
2022-08-03T10:16:40.325Z,32.60
2022-08-03T10:19:09.371Z,32.29
2022-08-03T10:21:38.838Z,31.30
2022-08-03T10:24:08.442Z,31.34
2022-08-03T10:26:39.312Z,31.03
2022-08-03T10:29:25.366Z,31.05
2022-08-03T10:31:58.407Z,30.68
2022-08-03T10:34:35.178Z,30.77
2022-08-03T10:37:08.519Z,30.58
2022-08-03T10:39:36.622Z,29.83
2022-08-03T10:42:06.049Z,29.41
2022-08-03T10:44:42.870Z,29.39
2022-08-03T10:47:10.949Z,30.17
2022-08-03T10:49:38.603Z,30.31
2022-08-03T10:52:12.974Z,29.73
2022-08-03T10:55:12.137Z,29.88
2022-08-03T10:57:46.431Z,30.58
2022-08-03T11:00:21.441Z,30.23
2022-08-03T11:03:11.999Z,30.01
2022-08-03T11:05:48.365Z,30.19
2022-08-03T11:08:28.149Z,29.97
2022-08-03T11:11:01.690Z,30.15
2022-08-03T11:13:33.629Z,29.77
2022-08-03T11:16:06.556Z,29.25
2022-08-03T11:18:34.013Z,30.03
2022-08-03T11:21:01.311Z,29.75
2022-08-03T11:24:03.994Z,29.69
2022-08-03T11:26:33.793Z,29.45
2022-08-03T11:29:29.899Z,29.32
2022-08-03T11:31:57.708Z,29.49
2022-08-03T11:34:25.865Z,29.18
2022-08-03T11:37:23.001Z,28.28
2022-08-03T11:39:53.461Z,26.75
2022-08-03T11:42:45.270Z,26.11
2022-08-03T11:45:12.622Z,26.03
2022-08-03T11:47:51.148Z,25.81
2022-08-03T11:50:20.061Z,25.83
2022-08-03T11:52:47.920Z,25.76
2022-08-03T11:55:17.486Z,25.70
2022-08-03T11:59:10.798Z,26.01
2022-08-03T12:00:34.360Z,26.00
2022-08-03T12:03:04.831Z,26.14
2022-08-03T12:05:50.991Z,25.88
2022-08-03T12:08:27.925Z,25.92
2022-08-03T12:10:57.461Z,25.76
2022-08-03T12:14:35.719Z,25.74
2022-08-03T12:16:23.917Z,26.13
2022-08-03T12:19:06.901Z,26.21
2022-08-03T12:21:34.178Z,25.96
2022-08-03T12:24:03.791Z,26.23
2022-08-03T12:26:43.010Z,26.34
2022-08-03T12:29:26.429Z,26.07
2022-08-03T12:31:53.654Z,25.86
2022-08-03T12:34:21.051Z,25.80
2022-08-03T12:36:59.370Z,25.69
2022-08-03T12:39:30.838Z,25.55
2022-08-03T12:41:58.446Z,25.64
2022-08-03T12:44:36.422Z,25.55
2022-08-03T12:47:04.677Z,25.76
2022-08-03T12:49:49.851Z,25.80
2022-08-03T12:52:18.864Z,25.76
2022-08-03T12:55:00.872Z,25.78
2022-08-03T12:57:43.461Z,25.85
2022-08-03T13:00:21.214Z,25.85
2022-08-03T13:03:26.600Z,25.85
2022-08-03T13:05:47.310Z,25.58
2022-08-03T13:08:25.173Z,25.54
2022-08-03T13:10:52.148Z,25.82
2022-08-03T13:13:20.906Z,25.66
2022-08-03T13:15:48.338Z,25.65
2022-08-03T13:18:17.246Z,25.33
2022-08-03T13:20:44.654Z,25.60
2022-08-03T13:23:15.475Z,25.64
2022-08-03T13:25:55.567Z,25.75
2022-08-03T13:28:23.153Z,25.30
2022-08-03T13:30:50.173Z,25.43
2022-08-03T13:33:17.503Z,25.46
2022-08-03T13:35:44.538Z,25.57
2022-08-03T13:38:11.755Z,25.54
2022-08-03T13:40:41.847Z,25.54
2022-08-03T13:43:09.150Z,25.68
2022-08-03T13:45:36.369Z,25.58
2022-08-03T13:48:03.406Z,25.64
2022-08-03T13:50:31.540Z,25.86
2022-08-03T13:52:58.731Z,25.55
2022-08-03T13:55:25.995Z,25.59
2022-08-03T13:58:04.379Z,25.48
2022-08-03T14:00:40.032Z,25.49
2022-08-03T14:03:14.137Z,25.47
2022-08-03T14:05:43.097Z,25.77
2022-08-03T14:08:10.722Z,25.51
2022-08-03T14:10:40.150Z,25.30
2022-08-03T14:13:07.746Z,25.39
2022-08-03T14:15:37.641Z,25.49
2022-08-03T14:18:06.883Z,25.45
2022-08-03T14:20:37.338Z,25.19
2022-08-03T14:23:06.997Z,25.32
2022-08-03T14:25:43.518Z,25.52
2022-08-03T14:28:18.570Z,25.54
2022-08-03T14:30:46.165Z,25.56
2022-08-03T14:33:13.172Z,25.49
2022-08-03T14:35:40.620Z,25.33
2022-08-03T14:38:07.573Z,25.21
2022-08-03T14:40:34.530Z,25.10
2022-08-03T14:43:02.568Z,25.39
2022-08-03T14:45:29.592Z,25.39
2022-08-03T14:50:34.711Z,25.44
2022-08-03T14:50:50.189Z,25.44
2022-08-03T14:53:18.457Z,25.39
2022-08-03T14:55:49.546Z,25.31
2022-08-03T15:14:05.056Z,24.99
2022-08-03T15:16:36.056Z,25.08
2022-08-03T15:19:03.089Z,25.14
2022-08-03T15:21:50.013Z,25.01
2022-08-03T15:24:18.201Z,25.09
2022-08-03T15:26:45.176Z,24.99
2022-08-03T15:30:08.168Z,24.90
2022-08-03T15:32:00.723Z,24.99
2022-08-03T15:34:27.674Z,25.00
2022-08-03T15:36:54.615Z,24.92
2022-08-03T15:39:21.672Z,24.94
2022-08-03T15:41:48.686Z,24.83
2022-08-03T15:44:19.386Z,24.82
2022-08-03T15:46:46.379Z,24.78
2022-08-03T15:49:13.598Z,24.75
2022-08-03T15:51:40.535Z,24.76
2022-08-03T15:54:07.628Z,24.77
2022-08-03T15:56:34.586Z,24.74
2022-08-03T15:59:13.414Z,24.63
2022-08-03T16:01:41.735Z,24.64
2022-08-03T16:04:08.703Z,24.69
2022-08-03T16:06:36.603Z,24.81
2022-08-03T16:09:23.803Z,24.74
2022-08-03T16:11:53.538Z,24.69
2022-08-03T16:14:32.590Z,24.55
2022-08-03T16:17:03.197Z,24.53
2022-08-03T16:19:30.141Z,24.54
2022-08-03T16:21:57.227Z,24.51
2022-08-03T16:24:27.852Z,24.50
2022-08-03T16:26:56.040Z,24.50
2022-08-03T16:29:23.847Z,24.59
2022-08-03T16:31:52.304Z,24.53
2022-08-03T16:34:19.994Z,24.41
2022-08-03T16:36:46.944Z,24.42
2022-08-03T16:39:13.947Z,24.41
2022-08-03T16:42:00.731Z,24.41
2022-08-03T16:44:31.445Z,24.41
2022-08-03T16:46:59.218Z,24.38
2022-08-03T16:49:54.065Z,24.37
2022-08-03T16:52:13.379Z,24.34
2022-08-03T16:54:40.755Z,24.36
2022-08-03T16:57:08.635Z,24.33
2022-08-03T16:59:36.706Z,24.31
2022-08-03T17:02:10.102Z,24.31
2022-08-03T17:04:40.200Z,24.24
2022-08-03T17:07:08.956Z,24.21
2022-08-03T17:09:38.726Z,24.17
2022-08-03T17:12:07.629Z,24.15
2022-08-03T17:14:39.550Z,24.12
2022-08-03T17:17:16.428Z,24.07
2022-08-03T17:19:47.221Z,24.06
2022-08-03T17:22:18.534Z,24.05
2022-08-03T17:24:53.550Z,24.04
2022-08-03T17:28:48.845Z,24.04
2022-08-03T17:30:16.039Z,24.00
2022-08-03T17:32:56.758Z,24.01
2022-08-03T17:35:34.456Z,24.02
2022-08-03T17:38:06.630Z,24.05
2022-08-03T17:40:37.914Z,24.03
2022-08-03T17:43:44.023Z,23.99
2022-08-03T17:45:54.977Z,23.98
2022-08-03T17:48:25.055Z,23.95
2022-08-03T17:51:17.266Z,23.97
2022-08-03T17:53:52.970Z,23.96
2022-08-03T17:56:45.170Z,23.92
2022-08-03T17:59:51.075Z,23.88
2022-08-03T18:02:54.210Z,23.91
2022-08-03T18:06:10.616Z,23.91
2022-08-03T18:08:21.268Z,23.70
2022-08-03T18:10:56.660Z,23.42
2022-08-03T18:13:59.264Z,23.30
2022-08-03T18:16:30.594Z,23.23
2022-08-03T18:19:00.945Z,23.27
2022-08-03T18:22:02.859Z,23.33
2022-08-03T18:24:29.348Z,23.38
2022-08-03T18:26:59.057Z,23.44
2022-08-03T18:29:29.899Z,23.44
2022-08-03T18:32:03.771Z,23.41
2022-08-03T18:34:34.534Z,23.37
2022-08-03T18:37:07.190Z,23.40
2022-08-03T18:39:38.910Z,23.34
2022-08-03T18:42:19.539Z,23.33
2022-08-03T18:44:53.461Z,23.31
2022-08-03T18:47:52.011Z,23.31
2022-08-03T18:50:34.821Z,23.26
2022-08-03T18:54:02.754Z,23.23
2022-08-03T18:56:48.391Z,23.20
2022-08-03T18:59:29.969Z,23.15
2022-08-03T19:02:06.118Z,23.12
2022-08-03T19:04:36.934Z,23.06
2022-08-03T19:07:11.200Z,23.04
2022-08-03T19:09:48.426Z,22.99
2022-08-03T19:12:30.916Z,22.99
2022-08-03T19:15:10.388Z,22.94
2022-08-03T19:17:53.273Z,22.88
2022-08-03T19:20:22.399Z,22.84
2022-08-03T19:22:53.483Z,22.89
2022-08-03T19:25:35.124Z,22.86
2022-08-03T19:28:06.201Z,22.80
2022-08-03T19:30:39.677Z,22.83
2022-08-03T19:33:10.625Z,22.69
2022-08-03T19:38:33.561Z,22.72
2022-08-03T19:41:05.800Z,22.71
2022-08-03T19:43:49.380Z,22.70
2022-08-03T19:46:31.660Z,22.54
2022-08-03T19:49:21.176Z,22.59
2022-08-03T19:52:01.659Z,22.59
2022-08-03T19:54:54.170Z,22.53
2022-08-03T19:57:24.876Z,22.57
2022-08-03T19:59:53.982Z,22.56
2022-08-03T20:02:26.510Z,22.41
2022-08-03T20:04:57.295Z,22.33
2022-08-03T20:07:26.357Z,22.27
2022-08-03T20:09:56.606Z,22.26
2022-08-03T20:15:13.857Z,22.34
2022-08-03T20:17:55.944Z,22.31
2022-08-03T20:20:33.617Z,22.21
2022-08-03T20:23:06.856Z,22.27
2022-08-03T20:25:48.957Z,22.22
2022-08-03T20:28:50.205Z,22.07
2022-08-03T20:31:21.655Z,22.00
2022-08-03T20:33:51.209Z,21.92
2022-08-03T20:36:18.811Z,21.89
2022-08-03T20:38:47.839Z,21.84
2022-08-03T20:41:18.874Z,21.87
2022-08-03T20:43:49.422Z,21.74
2022-08-03T20:46:32.890Z,21.74
2022-08-03T20:49:06.458Z,21.77
2022-08-03T20:51:49.698Z,21.65
2022-08-03T20:54:31.290Z,21.59
2022-08-03T20:57:04.377Z,21.64
2022-08-03T20:59:50.875Z,21.66
2022-08-03T21:02:30.273Z,21.59
2022-08-03T21:05:08.473Z,21.59
2022-08-03T21:08:04.920Z,21.54
2022-08-03T21:10:35.792Z,21.47
2022-08-03T21:13:03.678Z,22.32
2022-08-03T21:13:08.339Z,22.73
2022-08-03T21:16:06.433Z,21.37
2022-08-03T21:18:45.146Z,21.33
2022-08-03T21:21:16.524Z,21.24
2022-08-03T21:23:48.619Z,21.21
2022-08-03T21:26:19.291Z,21.21
2022-08-03T21:28:48.435Z,21.19
2022-08-03T21:31:23.759Z,21.27
2022-08-03T21:33:57.928Z,21.17
2022-08-03T21:36:27.956Z,21.18
2022-08-03T21:38:57.468Z,21.15
2022-08-03T21:41:26.703Z,21.18
2022-08-03T21:43:53.720Z,21.17
2022-08-03T21:46:21.950Z,21.18
2022-08-03T21:48:55.450Z,21.15
2022-08-03T21:51:26.040Z,21.10
2022-08-03T21:54:03.578Z,21.14
2022-08-03T21:57:01.104Z,21.06
2022-08-03T21:59:28.369Z,21.06
2022-08-03T22:01:58.660Z,21.06
2022-08-03T22:04:54.968Z,21.08
2022-08-03T22:07:15.243Z,21.01
2022-08-03T22:09:51.125Z,20.96
2022-08-03T22:12:22.793Z,20.95
2022-08-03T22:15:00.554Z,20.93
2022-08-03T22:17:55.652Z,20.85
2022-08-03T22:20:17.531Z,20.77
2022-08-03T22:22:50.181Z,20.79
2022-08-03T22:25:27.497Z,20.75
2022-08-03T22:27:55.509Z,20.71
2022-08-03T22:30:22.801Z,20.66
2022-08-03T22:32:53.847Z,20.67
2022-08-03T22:35:24.089Z,20.65
2022-08-03T22:37:53.987Z,20.65
2022-08-03T22:40:21.589Z,20.61
2022-08-03T22:42:52.585Z,20.56
2022-08-03T22:46:06.947Z,20.58
2022-08-03T22:48:08.550Z,20.54
2022-08-03T22:50:36.007Z,20.55
2022-08-03T22:53:03.640Z,20.56
2022-08-03T22:55:31.584Z,20.55
2022-08-03T22:57:58.654Z,20.47
2022-08-03T23:00:25.836Z,20.48
2022-08-03T23:02:55.374Z,20.49
2022-08-03T23:06:02.592Z,20.46
2022-08-03T23:08:22.974Z,20.45
2022-08-03T23:10:51.459Z,20.47
2022-08-03T23:13:24.176Z,20.46
2022-08-03T23:16:01.771Z,20.54
2022-08-03T23:18:37.062Z,20.51
2022-08-03T23:21:06.109Z,20.55
2022-08-03T23:23:44.181Z,20.56
2022-08-03T23:26:13.429Z,20.54
2022-08-03T23:28:45.334Z,20.51
2022-08-03T23:31:14.632Z,20.49
2022-08-03T23:33:44.755Z,20.47
2022-08-03T23:36:30.175Z,20.47
2022-08-03T23:39:02.405Z,20.38
2022-08-03T23:41:30.728Z,20.32
2022-08-03T23:44:01.019Z,20.36
2022-08-03T23:46:30.553Z,20.32
2022-08-03T23:49:00.474Z,20.34
2022-08-03T23:51:34.843Z,20.30
2022-08-03T23:54:40.954Z,20.36
2022-08-03T23:57:09.530Z,20.30
